Time;durP1;ratioP1;P1;durP2;ratioP2;P2;SDS_P1;SDS_P2;PMS_P1;PMS_P2;Temp;Humidity;BMP_temperature;BMP_pressure;BME280_temperature;BME280_humidity;BME280_pressure;Samples;Min_cycle;Max_cycle;Signal;HPM_P1;HPM_P2
2022/03/16 07:58:49;;;;;;;19.20;15.93;;;;;;;7.07;79.68;102164.06;5258378;27;3080845;-70
2022/03/16 08:01:20;;;;;;;19.60;16.30;;;;;;;7.17;79.04;102173.44;5343383;28;20035;-71
2022/03/16 08:03:55;;;;;;;18.75;13.95;;;;;;;7.23;78.65;102165.31;5343217;28;20470;-73
2022/03/16 08:06:26;;;;;;;19.10;16.05;;;;;;;7.35;79.60;102169.78;5340845;28;20065;-68
2022/03/16 08:08:58;;;;;;;18.17;14.82;;;;;;;7.48;78.46;102168.72;5327463;28;20455;-71
2022/03/16 08:11:30;;;;;;;14.88;13.35;;;;;;;7.69;79.21;102174.78;5343039;28;20031;-70
2022/03/16 08:14:01;;;;;;;16.33;13.60;;;;;;;7.71;77.33;102172.63;5343345;28;20019;-70
2022/03/16 08:16:32;;;;;;;17.00;14.43;;;;;;;7.78;77.88;102168.66;5341614;28;20392;-72
2022/03/16 08:19:06;;;;;;;17.25;15.07;;;;;;;7.82;77.10;102155.19;5334060;28;20377;-71
2022/03/16 08:21:37;;;;;;;16.05;14.27;;;;;;;7.83;76.52;102154.97;5337604;28;20030;-72
2022/03/16 08:24:09;;;;;;;15.38;13.82;;;;;;;7.97;76.44;102165.78;5333229;28;20024;-72
2022/03/16 08:26:41;;;;;;;17.80;15.75;;;;;;;7.96;76.40;102161.34;5321778;28;20107;-73
2022/03/16 08:29:12;;;;;;;17.48;14.98;;;;;;;7.96;76.11;102158.59;5330600;28;20031;-72
2022/03/16 08:31:43;;;;;;;17.23;14.75;;;;;;;8.13;76.20;102159.56;5341713;28;20019;-72
2022/03/16 08:34:14;;;;;;;16.25;13.75;;;;;;;8.16;75.85;102164.59;5342569;28;20020;-71
2022/03/16 08:36:46;;;;;;;17.15;15.35;;;;;;;8.25;75.19;102152.06;5325380;28;20024;-72
2022/03/16 08:39:17;;;;;;;17.88;15.32;;;;;;;8.38;75.30;102150.97;5324441;28;20023;-72
2022/03/16 08:41:48;;;;;;;19.08;16.45;;;;;;;8.36;74.12;102155.06;5334100;28;20020;-73
2022/03/16 08:44:21;;;;;;;18.25;16.30;;;;;;;8.40;74.20;102153.53;5340526;28;20028;-72
2022/03/16 08:46:53;;;;;;;16.70;14.77;;;;;;;8.41;74.41;102153.28;5342336;28;20434;-71
2022/03/16 08:49:24;;;;;;;17.15;14.85;;;;;;;8.47;73.62;102159.78;5335067;28;20051;-73
2022/03/16 08:52:01;;;;;;;18.60;15.73;;;;;;;8.50;73.35;102175.88;5327500;28;20020;-73
2022/03/16 08:54:33;;;;;;;18.60;16.35;;;;;;;8.54;73.70;102171.53;5335379;28;20035;-70
2022/03/16 08:57:04;;;;;;;16.45;14.73;;;;;;;8.63;73.66;102180.28;5342314;28;20043;-69
2022/03/16 08:59:37;;;;;;;21.30;15.32;;;;;;;8.73;73.11;102186.03;5332398;28;20054;-75
2022/03/16 09:02:09;;;;;;;19.00;14.85;;;;;;;8.81;73.09;102193.94;5320202;28;20028;-70
2022/03/16 09:04:41;;;;;;;24.67;13.63;;;;;;;9.29;75.50;102187.13;5339691;28;20030;-72
2022/03/16 09:07:12;;;;;;;17.05;15.15;;;;;;;9.01;71.47;102187.97;5330355;28;20099;-71
2022/03/16 09:09:44;;;;;;;18.85;15.82;;;;;;;9.01;71.89;102187.97;5309288;28;20418;-72
2022/03/16 09:12:15;;;;;;;17.20;14.90;;;;;;;9.08;71.61;102177.63;5310853;28;20038;-74
2022/03/16 09:14:47;;;;;;;20.02;16.38;;;;;;;9.02;71.02;102184.13;5321657;28;20045;-74
2022/03/16 09:17:18;;;;;;;20.05;15.23;;;;;;;9.06;71.45;102174.25;5311840;28;20039;-74
2022/03/16 09:19:50;;;;;;;18.88;14.65;;;;;;;9.19;71.39;102172.28;5306707;28;20024;-75
2022/03/16 09:22:22;;;;;;;22.45;16.00;;;;;;;9.29;71.20;102178.00;5315264;28;20023;-75
2022/03/16 09:24:56;;;;;;;19.95;15.57;;;;;;;9.43;70.56;102184.06;5314955;28;20039;-75
2022/03/16 09:27:27;;;;;;;17.38;15.15;;;;;;;9.45;70.77;102176.34;5313152;28;20054;-75
2022/03/16 09:29:59;;;;;;;20.67;15.30;;;;;;;9.65;70.22;102167.56;5320639;28;20027;-75
2022/03/16 09:32:33;;;;;;;24.98;16.63;;;;;;;9.71;69.87;102161.00;5319562;28;20032;-75
2022/03/16 09:35:06;;;;;;;18.35;15.15;;;;;;;9.73;70.35;102161.59;5310367;28;20019;-75
2022/03/16 09:37:38;;;;;;;19.30;15.75;;;;;;;9.79;69.97;102163.34;5327761;28;20462;-76
2022/03/16 09:40:09;;;;;;;19.63;15.82;;;;;;;9.83;69.55;102167.28;5328566;28;20038;-77
2022/03/16 09:42:42;;;;;;;26.17;20.25;;;;;;;9.78;69.41;102158.91;5326605;28;20097;-74
2022/03/16 09:45:19;;;;;;;25.83;19.65;;;;;;;10.16;70.93;102148.94;5324259;28;20024;-73
2022/03/16 09:47:50;;;;;;;25.40;19.35;;;;;;;9.92;69.28;102148.31;5306610;28;20489;-75
2022/03/16 09:50:21;;;;;;;25.25;17.27;;;;;;;9.98;69.33;102150.06;5324312;28;20024;-76
2022/03/16 09:52:57;;;;;;;19.35;16.85;;;;;;;10.01;68.54;102153.16;5313596;28;20054;-74
2022/03/16 09:55:28;;;;;;;;;;;;;;;10.14;69.44;102140.03;5324878;28;20101;-74
2022/03/16 09:57:59;;;;;;;19.47;15.53;;;;;;;10.13;69.12;102138.38;5325915;28;19977;-73
2022/03/16 10:00:31;;;;;;;18.70;16.20;;;;;;;10.21;69.23;102141.53;5327511;28;20327;-72
2022/03/16 10:03:03;;;;;;;18.85;16.33;;;;;;;10.21;68.46;102143.47;5327066;28;20016;-69
2022/03/16 10:05:34;;;;;;;18.13;14.80;;;;;;;10.34;68.57;102133.97;5325132;28;20050;-69
2022/03/16 10:08:08;;;;;;;16.05;14.07;;;;;;;10.43;67.70;102144.38;5325968;28;20347;-69
2022/03/16 10:13:32;;;;;;;17.80;15.40;;;;;;;10.59;67.88;102128.75;5327145;28;20032;-73
2022/03/16 10:16:10;;;;;;;17.35;14.55;;;;;;;10.71;67.18;102128.63;5326841;28;20027;-73
2022/03/16 10:18:46;;;;;;;19.08;13.98;;;;;;;10.69;67.15;102125.28;5326056;28;20035;-73
2022/03/16 10:21:17;;;;;;;;;;;;;;;10.83;66.91;102123.75;5313019;28;20073;-72
2022/03/16 10:23:59;;;;;;;16.93;14.53;;;;;;;10.87;66.51;102127.69;5305969;28;20449;-73
2022/03/16 10:26:30;;;;;;;16.15;14.35;;;;;;;10.86;66.47;102119.63;5304985;28;20277;-73
2022/03/16 10:29:03;;;;;;;19.55;13.40;;;;;;;10.92;66.44;102134.41;5305438;28;20034;-73
2022/03/16 10:31:35;;;;;;;17.65;13.52;;;;;;;11.00;65.95;102132.00;5307499;28;20032;-71
2022/03/16 10:34:12;;;;;;;16.15;13.57;;;;;;;11.04;66.84;102121.19;5318160;28;20373;-72
2022/03/16 10:36:49;;;;;;;15.82;14.05;;;;;;;11.18;65.82;102116.09;5325076;28;20120;-73
2022/03/16 10:39:35;;;;;;;14.20;12.10;;;;;;;11.24;65.83;102120.56;5304694;28;20502;-74
2022/03/16 10:48:15;;;;;;;65.72;56.70;;;;;;;11.45;65.23;102116.03;5325320;28;20043;-73
2022/03/16 10:50:48;;;;;;;21.73;16.08;;;;;;;11.41;65.29;102114.91;5323948;28;20028;-76
2022/03/16 10:53:21;;;;;;;17.42;14.25;;;;;;;11.53;65.11;102110.84;5315890;28;20027;-70
2022/03/16 10:55:55;;;;;;;14.30;12.63;;;;;;;11.50;65.12;102107.75;5326199;28;20450;-71
2022/03/16 10:58:27;;;;;;;15.90;13.52;;;;;;;11.62;64.85;102115.91;5310857;28;20123;-71
2022/03/16 11:01:02;;;;;;;15.63;13.20;;;;;;;11.55;64.54;102121.69;5324743;28;20024;-70
2022/03/16 11:03:36;;;;;;;14.00;11.40;;;;;;;11.68;65.14;102120.38;5315205;28;20028;-71
2022/03/16 11:06:08;;;;;;;14.98;12.50;;;;;;;11.71;64.58;102114.31;5304549;28;20020;-71
2022/03/16 11:08:41;;;;;;;13.60;12.02;;;;;;;11.71;64.90;102103.22;5303958;28;20047;-71
2022/03/16 11:14:04;;;;;;;13.10;11.70;;;;;;;11.82;65.09;102112.44;5311376;28;20024;-70
2022/03/16 11:16:35;;;;;;;14.18;12.57;;;;;;;11.73;64.08;102112.09;5316476;28;20146;-70
2022/03/16 11:19:09;;;;;;;14.52;12.57;;;;;;;11.72;64.59;102111.25;5303816;28;20099;-71
2022/03/16 11:22:00;;;;;;;14.23;11.55;;;;;;;11.84;65.04;102124.97;5304857;28;20040;-70
2022/03/16 11:24:36;;;;;;;13.45;11.25;;;;;;;11.90;64.33;102117.53;5318720;28;20036;-71
2022/03/16 11:27:24;;;;;;;11.80;10.60;;;;;;;11.96;64.61;102117.31;5308005;28;20052;-70
2022/03/16 11:30:25;;;;;;;13.85;11.70;;;;;;;12.06;64.52;102119.28;5307768;28;20035;-71
2022/03/16 11:33:10;;;;;;;12.70;11.05;;;;;;;12.13;64.23;102122.69;5314738;28;20024;-70
2022/03/16 11:35:50;;;;;;;13.02;11.63;;;;;;;12.13;64.63;102117.13;5318646;28;20467;-71
2022/03/16 11:38:21;;;;;;;14.05;11.75;;;;;;;12.21;64.34;102123.28;5324741;28;20023;-71
2022/03/16 11:40:54;;;;;;;13.45;11.90;;;;;;;12.24;64.05;102111.63;5324975;28;20031;-70
2022/03/16 11:43:28;;;;;;;13.98;11.52;;;;;;;12.21;64.23;102117.72;5323469;28;20063;-71
2022/03/16 11:46:00;;;;;;;14.50;12.18;;;;;;;12.28;63.54;102116.38;5321846;28;21681;-70
2022/03/16 11:48:39;;;;;;;15.18;11.27;;;;;;;12.37;64.41;102119.47;5313527;28;20016;-70
2022/03/16 11:51:16;;;;;;;13.27;11.32;;;;;;;12.39;64.07;102114.47;5306108;28;20031;-71
2022/03/16 11:56:40;;;;;;;13.40;12.03;;;;;;;12.49;63.63;102116.47;5324057;28;20115;-71
2022/03/16 11:59:18;;;;;;;12.63;11.32;;;;;;;12.60;63.42;102118.16;5313273;28;20342;-69
2022/03/16 12:02:01;;;;;;;16.23;11.63;;;;;;;12.56;63.38;102115.09;5313319;28;20043;-75
2022/03/16 12:04:33;;;;;;;13.18;11.35;;;;;;;12.67;63.50;102110.41;5309744;28;20028;-76
2022/03/16 12:07:14;;;;;;;22.65;18.92;;;;;;;12.83;63.19;102108.50;5313536;28;20055;-75
2022/03/16 12:09:54;;;;;;;14.32;12.13;;;;;;;12.94;63.38;102099.09;5303663;28;20062;-75
2022/03/16 12:12:51;;;;;;;13.43;11.63;;;;;;;12.94;62.69;102090.72;5303011;28;20387;-75
2022/03/16 12:15:37;;;;;;;14.50;11.60;;;;;;;12.96;62.49;102094.06;5304325;28;20024;-77
2022/03/16 12:18:14;;;;;;;;;;;;;;;13.01;62.61;102087.66;5303274;28;20025;-79
2022/03/16 12:21:07;;;;;;;12.68;11.32;;;;;;;12.98;62.76;102079.84;5303354;28;20374;-75
2022/03/16 12:23:52;;;;;;;15.07;10.57;;;;;;;12.96;62.80;102080.16;5305240;28;20051;-75
2022/03/16 12:26:26;;;;;;;13.82;12.32;;;;;;;13.00;62.34;102081.25;5310453;28;20474;-77
2022/03/16 12:29:05;;;;;;;13.30;10.68;;;;;;;13.01;62.24;102077.38;5310531;28;20476;-77
2022/03/16 12:31:40;;;;;;;13.90;12.13;;;;;;;12.95;62.60;102084.03;5324290;28;20023;-77
2022/03/16 12:34:20;;;;;;;13.57;9.95;;;;;;;13.03;62.52;102074.31;5327107;28;20027;-77
2022/03/16 12:36:53;;;;;;;19.98;14.32;;;;;;;13.03;62.38;102072.34;5325867;28;20024;-77
2022/03/16 12:39:25;;;;;;;14.95;10.90;;;;;;;13.00;61.67;102070.13;5323492;28;20027;-79
2022/03/16 12:45:01;;;;;;;41.13;33.47;;;;;;;12.98;62.61;102061.19;5325259;28;20406;-79
2022/03/16 12:47:41;;;;;;;13.75;11.32;;;;;;;13.00;62.92;102056.19;5308045;28;20039;-78
2022/03/16 12:50:13;;;;;;;17.38;12.25;;;;;;;12.99;62.81;102057.31;5317113;28;20020;-79
2022/03/16 12:52:50;;;;;;;21.02;11.98;;;;;;;12.97;62.71;102056.75;5324571;28;20110;-78
2022/03/16 12:55:21;;;;;;;14.88;12.43;;;;;;;12.99;62.70;102057.31;5331939;28;20023;-78
2022/03/16 12:57:56;;;;;;;12.48;10.75;;;;;;;12.95;62.21;102056.19;5308369;28;20058;-75
2022/03/16 13:00:31;;;;;;;15.80;11.55;;;;;;;13.04;63.02;102053.72;5306118;28;20038;-79
2022/03/16 13:03:13;;;;;;;19.33;11.27;;;;;;;13.02;63.19;102051.19;5308742;28;20032;-78
2022/03/16 13:05:44;;;;;;;14.52;11.40;;;;;;;13.05;62.38;102055.38;5306934;28;20019;-78
2022/03/16 13:08:17;;;;;;;17.92;10.38;;;;;;;13.06;62.83;102057.03;5306694;28;20059;-78
2022/03/16 13:11:17;;;;;;;14.57;11.55;;;;;;;13.11;63.06;102053.41;5307888;28;20028;-77
2022/03/16 13:14:04;;;;;;;27.60;11.52;;;;;;;13.11;62.83;102043.09;5319872;28;20023;-76
2022/03/16 13:16:55;;;;;;;12.50;10.27;;;;;;;13.17;62.61;102035.63;5310303;28;20024;-76
2022/03/16 13:19:30;;;;;;;47.70;42.55;;;;;;;13.16;62.77;102045.06;5309488;28;20024;-77
2022/03/16 13:22:04;;;;;;;16.50;12.77;;;;;;;13.08;62.09;102034.47;5305612;28;20028;-76
2022/03/16 13:24:40;;;;;;;11.70;10.10;;;;;;;13.16;62.76;102025.56;5312078;28;20165;-74
2022/03/16 13:27:23;;;;;;;17.13;12.13;;;;;;;13.16;62.34;102022.78;5327034;28;20027;-73
2022/03/16 13:29:57;;;;;;;13.68;10.55;;;;;;;13.19;62.42;102022.22;5315649;28;20039;-72
2022/03/16 13:32:30;;;;;;;15.57;10.85;;;;;;;13.20;62.92;102023.91;5307166;28;20048;-75
2022/03/16 13:35:22;;;;;;;14.60;11.48;;;;;;;13.18;62.74;102009.41;5311768;28;20026;-74
2022/03/16 13:37:59;;;;;;;15.15;12.25;;;;;;;13.14;62.99;102014.72;5314356;28;20059;-74
2022/03/16 13:40:37;;;;;;;12.60;11.00;;;;;;;13.15;62.39;101994.09;5325694;28;20510;-74
2022/03/16 13:43:11;;;;;;;78.88;70.60;;;;;;;13.17;63.23;102000.22;5316524;28;20115;-74
2022/03/16 13:45:48;;;;;;;16.83;12.77;;;;;;;13.16;62.57;102000.50;5325701;28;20031;-74
2022/03/16 13:48:27;;;;;;;18.75;11.95;;;;;;;13.15;62.81;101987.69;5306641;28;20052;-74
2022/03/16 13:51:05;;;;;;;14.48;10.18;;;;;;;13.18;62.97;101984.34;5312764;28;20047;-75
2022/03/16 13:53:47;;;;;;;14.80;10.38;;;;;;;13.17;63.23;101977.13;5314748;28;20478;-73
2022/03/16 13:56:22;;;;;;;15.45;11.60;;;;;;;13.18;63.06;101985.19;5314519;28;20020;-74
2022/03/16 13:58:54;;;;;;;12.98;10.85;;;;;;;13.12;62.34;101975.16;5318632;28;20045;-74
2022/03/16 14:01:31;;;;;;;11.38;10.18;;;;;;;13.16;63.07;101967.06;5314845;28;20453;-74
2022/03/16 14:04:10;;;;;;;14.02;10.90;;;;;;;13.17;62.42;101961.25;5322499;28;20031;-74
2022/03/16 14:06:44;;;;;;;11.38;10.18;;;;;;;13.18;62.42;101956.50;5319594;28;20070;-77
2022/03/16 14:09:19;;;;;;;12.13;10.10;;;;;;;13.16;62.49;101950.38;5323609;28;20024;-76
2022/03/16 14:11:55;;;;;;;;;;;;;;;13.22;61.98;101944.53;5325548;28;20024;-76
2022/03/16 14:14:33;;;;;;;12.40;10.07;;;;;;;13.19;62.10;101935.88;5305919;28;19965;-76
2022/03/16 14:17:05;;;;;;;11.57;10.05;;;;;;;13.13;62.59;101937.84;5312528;28;20028;-71
2022/03/16 14:19:38;;;;;;;11.40;9.35;;;;;;;13.17;62.64;101921.41;5327802;27;20084;-70
2022/03/16 14:22:12;;;;;;;12.48;10.30;;;;;;;13.14;62.51;101911.66;5319703;27;20024;-72
2022/03/16 14:24:44;;;;;;;11.20;10.05;;;;;;;13.12;62.97;101910.28;5307171;28;20417;-73
2022/03/16 14:27:22;;;;;;;15.77;10.48;;;;;;;13.23;62.94;101903.56;5305257;28;20039;-75
2022/03/16 14:29:53;;;;;;;12.70;9.63;;;;;;;13.25;62.18;101904.13;5320689;28;20020;-75
2022/03/16 14:32:25;;;;;;;13.20;9.98;;;;;;;13.20;61.97;101912.50;5317289;28;20015;-75
2022/03/16 14:34:56;;;;;;;10.95;9.85;;;;;;;13.20;61.89;101896.59;5326403;28;20012;-74
2022/03/16 14:37:28;;;;;;;11.43;10.23;;;;;;;13.22;61.83;101899.94;5322570;28;20084;-76
2022/03/16 14:39:59;;;;;;;12.13;10.93;;;;;;;13.15;61.93;101893.84;5304655;28;20025;-76
2022/03/16 14:42:31;;;;;;;12.60;9.70;;;;;;;13.23;62.61;101893.25;5304839;28;20037;-74
2022/03/16 14:45:02;;;;;;;12.93;10.07;;;;;;;13.20;62.21;101887.41;5304315;28;20044;-75
2022/03/16 14:47:34;;;;;;;11.05;9.77;;;;;;;13.17;61.88;101885.22;5305074;28;20016;-77
2022/03/16 14:50:06;;;;;;;11.43;10.13;;;;;;;13.17;61.99;101883.25;5305149;28;20027;-79
2022/03/16 14:52:38;;;;;;;11.77;9.63;;;;;;;13.20;62.42;101884.63;5317864;28;20027;-77
2022/03/16 14:55:10;;;;;;;11.73;10.63;;;;;;;13.22;62.53;101876.84;5305798;28;20481;-77
2022/03/16 14:57:51;;;;;;;12.40;10.95;;;;;;;13.21;62.00;101870.41;5310237;28;20056;-78
2022/03/16 15:00:23;;;;;;;14.05;10.25;;;;;;;13.19;61.94;101874.59;5303995;28;20336;-79
2022/03/16 15:02:58;;;;;;;12.63;10.77;;;;;;;13.17;61.99;101874.06;5309566;28;20015;-79
2022/03/16 15:05:29;;;;;;;13.73;11.07;;;;;;;13.15;61.64;101863.19;5325901;28;20057;-77
2022/03/16 15:08:01;;;;;;;11.20;9.88;;;;;;;13.21;62.23;101858.44;5323620;28;20397;-77
2022/03/16 15:10:32;;;;;;;11.52;9.90;;;;;;;13.13;61.68;101864.59;5326093;28;20403;-76
2022/03/16 15:13:03;;;;;;;10.77;9.57;;;;;;;13.15;61.95;101860.41;5308293;28;20073;-75
2022/03/16 15:15:34;;;;;;;11.30;10.07;;;;;;;13.16;61.27;101861.25;5305281;28;20040;-77
2022/03/16 15:18:06;;;;;;;10.75;9.70;;;;;;;13.19;62.16;101852.31;5310908;28;20487;-76
2022/03/16 15:20:37;;;;;;;12.95;10.10;;;;;;;13.16;61.79;101847.31;5312609;28;20329;-76
2022/03/16 15:23:08;;;;;;;13.02;10.32;;;;;;;13.10;61.10;101852.06;5315422;28;20027;-76
2022/03/16 15:25:39;;;;;;;13.20;10.18;;;;;;;13.11;61.03;101853.72;5323402;28;20024;-76
2022/03/16 15:28:14;;;;;;;11.30;10.07;;;;;;;13.09;60.98;101852.34;5314103;28;20043;-80
2022/03/16 15:30:46;;;;;;;13.10;10.45;;;;;;;13.08;60.99;101864.59;5304866;28;20111;-78
2022/03/16 15:33:17;;;;;;;10.82;9.73;;;;;;;13.09;60.91;101866.25;5307209;28;20030;-79
2022/03/16 15:35:51;;;;;;;11.95;10.65;;;;;;;13.03;61.13;101855.13;5309818;28;20499;-77
2022/03/16 15:38:22;;;;;;;14.73;11.63;;;;;;;13.07;61.59;101847.06;5321508;28;20027;-75
2022/03/16 15:43:45;;;;;;;10.13;9.05;;;;;;;13.02;61.31;101847.06;5313302;28;20036;-78
2022/03/16 15:46:18;;;;;;;11.77;10.57;;;;;;;12.97;61.16;101850.69;5310360;28;20028;-76
2022/03/16 15:48:50;;;;;;;11.50;9.88;;;;;;;12.99;61.62;101851.25;5306338;28;20059;-75
2022/03/16 15:51:21;;;;;;;9.68;8.68;;;;;;;13.00;60.96;101869.63;5303535;28;20024;-79
2022/03/16 15:53:53;;;;;;;11.18;9.32;;;;;;;13.00;60.96;101872.41;5314315;28;20077;-76
2022/03/16 15:56:24;;;;;;;11.32;8.98;;;;;;;13.02;61.13;101874.94;5323609;28;20363;-73
2022/03/16 15:58:55;;;;;;;10.25;8.80;;;;;;;12.96;60.99;101865.75;5321439;28;20101;-74
2022/03/16 16:01:27;;;;;;;10.13;9.00;;;;;;;12.97;61.51;101853.50;5313361;28;20084;-78
2022/03/16 16:03:58;;;;;;;14.57;9.50;;;;;;;12.95;60.96;101861.28;5308279;28;20115;-77
2022/03/16 16:06:30;;;;;;;11.93;8.82;;;;;;;12.99;61.77;101856.84;5304251;28;20090;-78
2022/03/16 16:09:01;;;;;;;10.05;8.70;;;;;;;12.95;61.00;101858.50;5303810;28;20124;-81
2022/03/16 16:11:32;;;;;;;12.75;9.45;;;;;;;12.89;61.07;101884.69;5303603;28;20027;-75
2022/03/16 16:14:04;;;;;;;12.38;9.63;;;;;;;12.90;60.81;101883.56;5307895;28;20056;-78
2022/03/16 16:16:35;;;;;;;10.75;8.48;;;;;;;12.88;60.86;101877.44;5306607;28;20028;-78
2022/03/16 16:19:06;;;;;;;12.60;10.50;;;;;;;12.82;60.19;101876.59;5320634;28;20023;-80
2022/03/16 16:21:39;;;;;;;10.00;8.98;;;;;;;12.82;60.88;101865.47;5327815;28;20107;-75
2022/03/16 16:24:10;;;;;;;11.75;9.77;;;;;;;12.84;60.55;101862.41;5316357;28;20103;-76
2022/03/16 16:26:41;;;;;;;10.10;9.10;;;;;;;12.80;60.57;101847.38;5324715;28;20110;-77
2022/03/16 16:29:32;;;;;;;9.77;8.77;;;;;;;12.81;60.73;101849.91;5329106;28;20022;-77
2022/03/16 16:32:04;;;;;;;11.43;9.50;;;;;;;12.78;61.13;101836.53;5327521;28;20031;-80
2022/03/16 16:34:35;;;;;;;11.05;9.30;;;;;;;12.78;60.96;101838.47;5329291;28;20032;-82
2022/03/16 16:37:07;;;;;;;9.27;8.00;;;;;;;12.79;61.00;101840.16;5318171;28;20485;-79
2022/03/16 16:39:41;;;;;;;11.73;9.55;;;;;;;12.77;61.09;101845.16;5311047;28;20039;-81
2022/03/16 16:45:02;;;;;;;9.88;8.88;;;;;;;12.71;61.73;101844.34;5324105;28;20055;-79
2022/03/16 16:47:39;;;;;;;10.20;9.00;;;;;;;12.72;61.26;101840.44;5340873;28;20364;-79
2022/03/16 16:50:12;;;;;;;12.70;10.05;;;;;;;12.70;61.29;101841.81;5331549;28;20119;-78
2022/03/16 16:52:43;;;;;;;13.10;10.98;;;;;;;12.67;62.08;101836.81;5329281;28;20042;-78
2022/03/16 16:55:15;;;;;;;13.50;9.20;;;;;;;12.68;61.43;101832.91;5309522;28;20024;-83
2022/03/16 16:57:49;;;;;;;20.00;15.02;;;;;;;12.62;61.86;101835.72;5326047;28;20050;-80
2022/03/16 17:00:21;;;;;;;10.85;8.80;;;;;;;12.66;62.36;101826.81;5329491;28;20023;-80
2022/03/16 17:02:54;;;;;;;12.90;7.72;;;;;;;12.77;62.96;101820.13;5324389;28;20028;-72
2022/03/16 17:05:30;;;;;;;9.52;8.45;;;;;;;12.67;61.60;101811.78;5325466;28;20024;-73
2022/03/16 17:08:04;;;;;;;;;;;;;;;12.71;61.52;101810.13;5325365;28;20047;-73
2022/03/16 17:10:41;;;;;;;11.25;8.52;;;;;;;12.60;62.02;101803.72;5312453;28;19916;-74
2022/03/16 17:13:14;;;;;;;9.75;8.18;;;;;;;12.54;62.35;101808.44;5306601;28;20376;-73
2022/03/16 17:15:46;;;;;;;9.57;8.60;;;;;;;12.55;62.28;101812.06;5325814;28;20031;-76
2022/03/16 17:18:19;;;;;;;10.95;9.65;;;;;;;12.49;62.64;101815.97;5327541;28;20392;-75
2022/03/16 17:20:56;;;;;;;10.80;9.23;;;;;;;12.42;62.95;101807.06;5324647;28;20031;-75
2022/03/16 17:23:28;;;;;;;13.05;8.73;;;;;;;12.39;63.10;101803.72;5309198;28;20051;-76
2022/03/16 17:26:04;;;;;;;10.98;9.25;;;;;;;12.38;62.84;101807.63;5328071;28;20031;-76
2022/03/16 17:28:35;;;;;;;12.68;8.52;;;;;;;12.41;62.71;101811.81;5318961;28;20043;-74
